createdAt,value
2023-04-02T00:00:21.425Z,0.00
2023-04-02T00:01:20.806Z,0.00
2023-04-02T00:02:22.100Z,0.02
2023-04-02T00:03:20.397Z,0.02
2023-04-02T00:04:20.743Z,0.02
2023-04-02T00:05:21.027Z,0.01
2023-04-02T00:06:20.299Z,0.02
2023-04-02T00:07:20.583Z,0.02
2023-04-02T00:08:20.909Z,0.02
2023-04-02T00:09:20.162Z,0.00
2023-04-02T00:10:20.562Z,0.05
2023-04-02T00:11:20.818Z,0.02
2023-04-02T00:12:21.125Z,0.00
2023-04-02T00:13:20.394Z,0.00
2023-04-02T00:14:20.706Z,0.01
2023-04-02T00:15:20.017Z,0.00
2023-04-02T00:16:20.381Z,0.00
2023-04-02T00:17:20.588Z,0.02
2023-04-02T00:18:20.982Z,0.02
2023-04-02T00:20:20.477Z,0.00
2023-04-02T00:21:20.876Z,0.02
2023-04-02T00:23:20.394Z,0.02
2023-04-02T00:24:20.746Z,0.00
2023-04-02T00:25:20.011Z,0.02
2023-04-02T00:26:20.307Z,0.00
2023-04-02T00:27:20.687Z,0.00
2023-04-02T00:28:19.878Z,0.00
2023-04-02T00:29:20.202Z,0.00
2023-04-02T00:30:20.534Z,0.00
2023-04-02T00:31:19.753Z,0.00
2023-04-02T00:32:20.052Z,0.00
2023-04-02T00:33:20.384Z,0.04
2023-04-02T00:34:20.621Z,0.00
2023-04-02T00:35:19.900Z,0.02
2023-04-02T00:36:20.295Z,0.02
2023-04-02T00:37:20.479Z,0.02
2023-04-02T00:38:19.759Z,0.02
2023-04-02T00:39:20.059Z,0.02
2023-04-02T00:41:19.618Z,0.02
2023-04-02T00:42:20.880Z,0.00
2023-04-02T00:43:20.319Z,0.00
2023-04-02T00:44:20.584Z,0.00
2023-04-02T00:45:19.843Z,0.00
2023-04-02T00:46:20.191Z,0.02
2023-04-02T00:47:20.422Z,0.00
2023-04-02T00:48:19.702Z,0.05
2023-04-02T00:49:20.170Z,0.00
2023-04-02T00:50:20.425Z,0.00
2023-04-02T00:51:19.629Z,0.00
2023-04-02T00:52:19.985Z,0.00
2023-04-02T00:53:20.253Z,0.00
2023-04-02T00:54:19.534Z,0.00
2023-04-02T00:55:19.855Z,0.00
2023-04-02T00:56:20.216Z,0.02
2023-04-02T00:57:19.442Z,0.02
2023-04-02T00:58:19.742Z,0.00
2023-04-02T00:59:20.084Z,0.05
2023-04-02T01:00:19.396Z,0.02
2023-04-02T01:01:19.760Z,0.00
2023-04-02T01:02:20.073Z,0.00
2023-04-02T01:03:20.457Z,0.00
2023-04-02T01:04:19.605Z,0.00
2023-04-02T01:05:19.932Z,0.02
2023-04-02T01:06:20.335Z,0.00
2023-04-02T01:07:19.524Z,0.02
2023-04-02T01:08:19.860Z,0.00
2023-04-02T01:09:20.179Z,0.00
2023-04-02T01:10:19.421Z,0.00
2023-04-02T01:11:19.703Z,0.00
2023-04-02T01:12:20.092Z,0.00
2023-04-02T01:13:20.320Z,0.00
2023-04-02T01:14:19.549Z,0.00
2023-04-02T01:15:19.887Z,0.00
2023-04-02T01:16:19.140Z,0.00
2023-04-02T01:17:19.423Z,0.00
2023-04-02T01:18:19.792Z,0.00
2023-04-02T01:19:20.076Z,0.02
2023-04-02T01:20:19.267Z,0.00
2023-04-02T01:21:19.590Z,0.00
2023-04-02T01:22:19.838Z,0.02
2023-04-02T01:23:19.075Z,0.00
2023-04-02T01:24:19.389Z,0.00
2023-04-02T01:25:19.784Z,0.02
2023-04-02T01:26:19.918Z,0.00
2023-04-02T01:27:19.221Z,0.00
2023-04-02T01:28:19.105Z,0.05
2023-04-02T01:29:19.375Z,0.00
2023-04-02T01:30:19.735Z,0.00
2023-04-02T01:31:19.978Z,0.00
2023-04-02T01:32:19.153Z,0.02
2023-04-02T01:33:19.422Z,0.00
2023-04-02T01:34:20.782Z,0.02
2023-04-02T01:35:19.008Z,0.00
2023-04-02T01:36:19.224Z,0.00
2023-04-02T01:37:19.513Z,0.00
2023-04-02T01:38:19.830Z,0.00
2023-04-02T01:39:19.003Z,0.02
2023-04-02T01:40:19.283Z,0.00
2023-04-02T01:41:19.560Z,0.00
2023-04-02T01:42:19.852Z,0.00
2023-04-02T01:43:19.060Z,0.00
2023-04-02T01:44:19.346Z,0.00
2023-04-02T01:45:19.633Z,0.00
2023-04-02T01:46:19.895Z,0.00
2023-04-02T01:47:19.166Z,0.00
2023-04-02T01:48:19.440Z,0.02
2023-04-02T01:49:20.677Z,0.02
2023-04-02T01:50:19.836Z,0.02
2023-04-02T01:51:19.134Z,0.00
2023-04-02T01:52:19.442Z,0.00
2023-04-02T01:53:19.606Z,0.00
2023-04-02T01:54:19.986Z,0.00
2023-04-02T01:55:19.212Z,0.00
2023-04-02T01:56:19.478Z,0.00
2023-04-02T01:57:18.758Z,0.00
2023-04-02T01:58:19.046Z,0.02
2023-04-02T01:59:19.281Z,0.02
2023-04-02T02:00:19.560Z,0.02
2023-04-02T02:01:20.033Z,0.00
2023-04-02T02:02:19.156Z,0.00
2023-04-02T02:03:19.416Z,0.00
2023-04-02T02:04:18.550Z,0.02
2023-04-02T02:05:18.971Z,0.00
2023-04-02T02:06:19.098Z,0.02
2023-04-02T02:07:20.404Z,0.02
2023-04-02T02:08:18.627Z,0.00
2023-04-02T02:09:18.923Z,0.02
2023-04-02T02:10:19.254Z,0.04
2023-04-02T02:11:19.472Z,0.00
2023-04-02T02:12:19.678Z,0.00
2023-04-02T02:13:19.024Z,0.02
2023-04-02T02:14:20.239Z,0.01
2023-04-02T02:15:18.592Z,0.00
2023-04-02T02:16:18.876Z,0.02
2023-04-02T02:17:19.149Z,0.00
2023-04-02T02:18:18.371Z,0.00
2023-04-02T02:19:18.635Z,0.02
2023-04-02T02:20:18.914Z,0.00
2023-04-02T02:21:19.260Z,0.00
2023-04-02T02:22:18.437Z,0.02
2023-04-02T02:23:18.771Z,0.02
2023-04-02T02:24:19.051Z,0.00
2023-04-02T02:25:18.271Z,0.02
2023-04-02T02:26:18.594Z,0.00
2023-04-02T02:27:19.823Z,0.00
2023-04-02T02:28:19.142Z,0.02
2023-04-02T02:29:18.357Z,0.00
2023-04-02T02:30:18.703Z,0.00
2023-04-02T02:31:19.009Z,0.02
2023-04-02T02:32:18.191Z,0.01
2023-04-02T02:33:18.498Z,0.00
2023-04-02T02:34:22.928Z,0.00
2023-04-02T02:35:19.177Z,0.00
2023-04-02T02:36:18.267Z,0.00
2023-04-02T02:37:19.631Z,0.01
2023-04-02T02:38:19.777Z,0.00
2023-04-02T02:39:19.036Z,0.00
2023-04-02T02:40:18.388Z,0.02
2023-04-02T02:41:19.585Z,0.00
2023-04-02T02:42:18.954Z,0.00
2023-04-02T02:43:18.289Z,0.00
2023-04-02T02:44:18.352Z,0.00
2023-04-02T02:45:18.659Z,0.02
2023-04-02T02:46:18.944Z,0.02
2023-04-02T02:47:19.214Z,0.00
2023-04-02T02:48:18.508Z,0.00
2023-04-02T02:49:18.740Z,0.02
2023-04-02T02:50:17.958Z,0.00
2023-04-02T02:51:18.310Z,0.02
2023-04-02T02:52:18.493Z,0.02
2023-04-02T02:53:18.779Z,0.00
2023-04-02T02:54:18.041Z,0.00
2023-04-02T02:55:18.339Z,0.00
2023-04-02T02:56:19.571Z,0.00
2023-04-02T02:57:19.899Z,0.00
2023-04-02T02:58:18.186Z,0.00
2023-04-02T02:59:18.722Z,0.04
2023-04-02T03:00:19.702Z,0.00
2023-04-02T03:01:19.009Z,0.00
2023-04-02T03:02:18.343Z,0.00
2023-04-02T03:03:18.639Z,0.06
2023-04-02T03:04:17.820Z,0.00
2023-04-02T03:05:18.172Z,0.00
2023-04-02T03:06:18.323Z,0.00
2023-04-02T03:07:18.609Z,0.02
2023-04-02T03:08:17.941Z,0.00
2023-04-02T03:09:18.167Z,0.02
2023-04-02T03:10:18.458Z,0.00
2023-04-02T03:11:17.709Z,0.00
2023-04-02T03:12:17.945Z,0.02
2023-04-02T03:13:19.154Z,0.00
2023-04-02T03:14:19.452Z,0.00
2023-04-02T03:15:17.724Z,0.00
2023-04-02T03:16:18.095Z,0.00
2023-04-02T03:17:19.253Z,0.00
2023-04-02T03:18:19.508Z,0.00
2023-04-02T03:19:17.857Z,0.00
2023-04-02T03:20:18.064Z,0.00
2023-04-02T03:21:18.491Z,0.00
2023-04-02T03:22:17.589Z,0.00
2023-04-02T03:23:20.417Z,0.01
2023-04-02T03:24:19.136Z,0.00
2023-04-02T03:25:19.416Z,0.00
2023-04-02T03:26:17.688Z,0.00
2023-04-02T03:27:18.015Z,0.00
2023-04-02T03:28:19.229Z,0.00
2023-04-02T03:29:18.494Z,0.00
2023-04-02T03:30:18.755Z,0.02
2023-04-02T03:31:18.119Z,0.02
2023-04-02T03:32:18.495Z,0.02
2023-04-02T03:33:17.635Z,0.00
2023-04-02T03:34:17.477Z,0.00
2023-04-02T03:35:17.732Z,0.00
2023-04-02T03:36:18.022Z,0.04
2023-04-02T03:37:19.184Z,0.02
2023-04-02T03:38:17.531Z,0.00
2023-04-02T03:39:18.665Z,0.02
2023-04-02T03:40:18.935Z,0.00
2023-04-02T03:41:19.212Z,0.00
2023-04-02T03:42:17.447Z,0.00
2023-04-02T03:43:17.735Z,0.00
2023-04-02T03:44:17.997Z,0.02
2023-04-02T03:45:18.271Z,0.04
2023-04-02T03:46:18.552Z,0.00
2023-04-02T03:47:18.773Z,0.00
2023-04-02T03:48:18.117Z,0.00
2023-04-02T03:49:17.342Z,0.02
2023-04-02T03:50:17.612Z,0.00
2023-04-02T03:51:17.921Z,0.02
2023-04-02T03:52:18.109Z,0.02
2023-04-02T03:53:17.417Z,0.00
2023-04-02T03:54:17.759Z,0.00
2023-04-02T03:55:17.942Z,0.02
2023-04-02T03:56:19.165Z,0.00
2023-04-02T03:57:17.441Z,0.00
2023-04-02T03:58:18.186Z,0.02
2023-04-02T03:59:17.956Z,0.00
2023-04-02T04:00:18.174Z,0.00
2023-04-02T04:01:18.392Z,0.00
2023-04-02T04:02:17.713Z,0.00
2023-04-02T04:03:17.999Z,0.00
2023-04-02T04:04:18.295Z,0.00
2023-04-02T04:05:18.409Z,0.00
2023-04-02T04:06:20.187Z,0.00
2023-04-02T04:07:17.986Z,0.01
2023-04-02T04:08:18.158Z,0.00
2023-04-02T04:09:17.484Z,0.00
2023-04-02T04:10:18.659Z,0.04
2023-04-02T04:11:17.932Z,0.00
2023-04-02T04:12:17.217Z,0.00
2023-04-02T04:13:18.480Z,0.00
2023-04-02T04:14:17.724Z,0.02
2023-04-02T04:15:17.082Z,0.00
2023-04-02T04:16:18.233Z,0.00
2023-04-02T04:17:17.903Z,0.00
2023-04-02T04:18:18.150Z,0.02
2023-04-02T04:19:17.476Z,0.00
2023-04-02T04:20:17.830Z,0.02
2023-04-02T04:22:17.189Z,0.00
2023-04-02T04:23:18.433Z,0.00
2023-04-02T04:24:16.681Z,0.00
2023-04-02T04:25:16.974Z,0.02
2023-04-02T04:26:17.254Z,0.00
2023-04-02T04:27:18.440Z,0.02
2023-04-02T04:28:17.719Z,0.02
2023-04-02T04:29:17.032Z,0.01
2023-04-02T04:30:18.319Z,0.01
2023-04-02T04:31:17.718Z,0.07
2023-04-02T04:32:17.043Z,0.01
2023-04-02T04:33:17.191Z,0.01
2023-04-02T04:34:18.422Z,0.03
2023-04-02T04:35:17.683Z,0.02
2023-04-02T04:36:17.076Z,0.02
2023-04-02T04:37:17.327Z,0.03
2023-04-02T04:38:16.538Z,0.04
2023-04-02T04:39:16.847Z,0.05
2023-04-02T04:40:18.125Z,0.12
2023-04-02T04:41:18.386Z,0.09
2023-04-02T04:42:17.620Z,0.10
2023-04-02T04:43:17.776Z,0.10
2023-04-02T04:44:17.238Z,0.11
2023-04-02T04:45:16.484Z,0.13
2023-04-02T04:46:17.800Z,0.15
2023-04-02T04:47:17.056Z,0.17
2023-04-02T04:48:17.339Z,0.20
2023-04-02T04:49:16.675Z,0.25
2023-04-02T04:50:16.919Z,0.28
2023-04-02T04:51:17.215Z,0.31
2023-04-02T04:52:17.482Z,0.39
2023-04-02T04:53:17.707Z,0.43
2023-04-02T04:54:17.056Z,0.48
2023-04-02T04:55:16.290Z,0.54
2023-04-02T04:56:19.651Z,0.61
2023-04-02T04:57:17.907Z,0.68
2023-04-02T04:58:17.195Z,0.78
2023-04-02T04:59:16.452Z,0.87
2023-04-02T05:00:16.750Z,1.01
2023-04-02T05:01:17.087Z,1.19
2023-04-02T05:02:16.253Z,1.38
2023-04-02T05:03:16.546Z,1.60
2023-04-02T05:04:16.915Z,1.76
2023-04-02T05:05:17.152Z,2.15
2023-04-02T05:06:16.350Z,2.56
2023-04-02T05:07:17.605Z,2.88
2023-04-02T05:08:17.883Z,3.91
2023-04-02T05:09:16.165Z,4.56
2023-04-02T05:10:16.502Z,4.96
2023-04-02T05:11:16.715Z,5.09
2023-04-02T05:12:16.986Z,5.29
2023-04-02T05:13:16.235Z,5.43
2023-04-02T05:14:16.522Z,5.41
2023-04-02T05:15:16.833Z,5.95
2023-04-02T05:16:17.038Z,6.18
2023-04-02T05:17:17.313Z,6.60
2023-04-02T05:18:16.633Z,6.91
2023-04-02T05:19:16.945Z,7.98
2023-04-02T05:20:16.188Z,9.17
2023-04-02T05:21:17.513Z,8.96
2023-04-02T05:22:16.795Z,8.72
2023-04-02T05:23:16.964Z,9.72
2023-04-02T05:24:17.231Z,10.52
2023-04-02T05:25:16.586Z,11.09
2023-04-02T05:26:16.837Z,11.40
2023-04-02T05:27:16.357Z,11.84
2023-04-02T05:28:17.288Z,12.54
2023-04-02T05:29:17.607Z,12.48
2023-04-02T05:30:17.134Z,12.44
2023-04-02T05:31:17.226Z,12.17
2023-04-02T05:32:17.548Z,12.17
2023-04-02T05:33:17.784Z,11.66
2023-04-02T05:34:17.000Z,11.67
2023-04-02T05:35:17.295Z,10.54
2023-04-02T05:36:16.693Z,11.14
2023-04-02T05:37:16.901Z,11.72
2023-04-02T05:38:17.260Z,12.40
2023-04-02T05:39:17.490Z,12.94
2023-04-02T05:40:16.758Z,13.46
2023-04-02T05:41:17.048Z,14.06
2023-04-02T05:42:16.622Z,14.95
2023-04-02T05:43:16.734Z,16.13
2023-04-02T05:44:15.897Z,18.01
2023-04-02T05:45:17.141Z,20.40
2023-04-02T05:46:17.547Z,23.02
2023-04-02T05:47:16.671Z,25.71
2023-04-02T05:48:16.969Z,27.45
2023-04-02T05:49:16.654Z,28.47
2023-04-02T05:50:16.639Z,29.51
2023-04-02T05:51:16.878Z,29.43
2023-04-02T05:52:17.131Z,29.66
2023-04-02T05:53:17.923Z,28.98
2023-04-02T05:54:16.654Z,27.53
2023-04-02T05:55:16.948Z,26.64
2023-04-02T05:56:16.275Z,26.40
2023-04-02T05:57:15.546Z,26.98
2023-04-02T05:58:34.483Z,26.87
2023-04-02T05:59:18.102Z,27.11
2023-04-02T06:00:17.440Z,27.12
2023-04-02T06:01:15.710Z,26.96
2023-04-02T06:02:16.030Z,26.68
2023-04-02T06:03:16.428Z,26.30
2023-04-02T06:04:16.555Z,25.97
2023-04-02T06:05:16.845Z,25.86
2023-04-02T06:06:17.484Z,25.67
2023-04-02T06:07:15.470Z,25.26
2023-04-02T06:08:15.747Z,25.37
2023-04-02T06:09:19.082Z,25.45
2023-04-02T06:10:16.344Z,25.52
2023-04-02T06:11:16.564Z,26.08
2023-04-02T06:12:16.891Z,26.65
2023-04-02T06:13:17.170Z,27.18
2023-04-02T06:14:17.430Z,28.83
2023-04-02T06:15:15.736Z,29.76
2023-04-02T06:16:17.021Z,30.64
2023-04-02T06:17:15.302Z,32.11
2023-04-02T06:18:16.630Z,33.54
2023-04-02T06:19:16.865Z,35.10
2023-04-02T06:20:16.211Z,36.59
2023-04-02T06:21:15.501Z,38.28
2023-04-02T06:22:16.752Z,38.28
2023-04-02T06:23:17.224Z,37.22
2023-04-02T06:24:15.405Z,37.06
2023-04-02T06:25:15.641Z,38.90
2023-04-02T06:26:15.995Z,39.91
2023-04-02T06:27:15.241Z,41.44
2023-04-02T06:28:15.550Z,43.34
2023-04-02T06:29:15.888Z,44.15
2023-04-02T06:30:15.106Z,43.31
2023-04-02T06:31:15.397Z,44.53
2023-04-02T06:32:16.682Z,44.39
2023-04-02T06:33:16.206Z,45.76
2023-04-02T06:34:15.258Z,48.70
2023-04-02T06:35:16.583Z,49.73
2023-04-02T06:36:15.916Z,52.01
2023-04-02T06:37:16.096Z,56.40
2023-04-02T06:38:15.440Z,59.85
2023-04-02T06:39:15.845Z,63.22
2023-04-02T06:40:15.058Z,65.56
2023-04-02T06:41:16.345Z,68.18
2023-04-02T06:42:15.675Z,71.84
2023-04-02T06:43:14.896Z,74.79
2023-04-02T06:44:15.207Z,75.40
2023-04-02T06:45:15.629Z,76.65
2023-04-02T06:46:15.924Z,76.85
2023-04-02T06:47:15.160Z,77.09
2023-04-02T06:48:16.413Z,81.04
2023-04-02T06:49:16.686Z,80.15
2023-04-02T06:50:15.008Z,79.89
2023-04-02T06:51:16.337Z,82.27
2023-04-02T06:52:16.584Z,80.68
2023-04-02T06:53:14.929Z,78.75
2023-04-02T06:54:15.213Z,82.55
2023-04-02T06:55:15.557Z,83.88
2023-04-02T06:56:15.736Z,83.53
2023-04-02T06:57:15.326Z,84.44
2023-04-02T06:58:20.611Z,81.86
2023-04-02T06:59:14.695Z,79.49
2023-04-02T07:00:16.022Z,79.79
2023-04-02T07:01:15.412Z,77.80
2023-04-02T07:02:15.716Z,71.98
2023-04-02T07:03:15.005Z,66.37
2023-04-02T07:04:15.342Z,62.86
2023-04-02T07:05:16.607Z,64.00
2023-04-02T07:06:14.880Z,66.56
2023-04-02T07:07:15.259Z,69.99
2023-04-02T07:08:15.622Z,73.52
2023-04-02T07:09:14.842Z,74.56
2023-04-02T07:10:16.155Z,77.37
2023-04-02T07:11:17.684Z,85.86
2023-04-02T07:12:15.724Z,95.25
2023-04-02T07:13:15.124Z,98.33
2023-04-02T07:14:15.470Z,99.09
2023-04-02T07:15:14.709Z,100.22
2023-04-02T07:16:15.080Z,102.69
2023-04-02T07:17:15.428Z,102.10
2023-04-02T07:18:14.684Z,102.22
2023-04-02T07:19:15.008Z,106.01
2023-04-02T07:20:15.333Z,108.51
2023-04-02T07:21:14.696Z,110.75
2023-04-02T07:22:14.884Z,110.40
2023-04-02T07:23:17.017Z,108.17
2023-04-02T07:24:16.534Z,108.31
2023-04-02T07:25:17.173Z,107.18
2023-04-02T07:26:15.146Z,105.15
2023-04-02T07:27:14.434Z,101.48
2023-04-02T07:28:14.840Z,98.28
2023-04-02T07:29:20.236Z,98.83
2023-04-02T07:30:14.524Z,100.43
2023-04-02T07:31:14.848Z,96.74
2023-04-02T07:32:16.100Z,93.03
2023-04-02T07:33:14.372Z,94.29
2023-04-02T07:34:14.641Z,96.58
2023-04-02T07:35:15.950Z,102.67
2023-04-02T07:36:14.320Z,110.07
2023-04-02T07:37:16.586Z,112.83
2023-04-02T07:38:15.893Z,115.22
2023-04-02T07:39:15.320Z,118.65
2023-04-02T07:40:15.521Z,123.32
2023-04-02T07:41:14.884Z,123.91
2023-04-02T07:42:15.155Z,126.11
2023-04-02T07:43:15.565Z,132.93
2023-04-02T07:44:15.830Z,141.47
2023-04-02T07:45:15.173Z,142.36
2023-04-02T07:46:15.551Z,138.76
2023-04-02T07:47:15.827Z,146.38
2023-04-02T07:48:14.153Z,163.10
2023-04-02T07:49:15.458Z,177.60
2023-04-02T07:50:15.740Z,194.01
2023-04-02T07:51:14.054Z,194.94
2023-04-02T07:52:15.331Z,187.70
2023-04-02T07:53:15.628Z,177.70
2023-04-02T07:54:14.915Z,173.30
2023-04-02T07:55:14.363Z,184.57
2023-04-02T07:56:15.579Z,183.74
2023-04-02T07:57:16.033Z,199.85
2023-04-02T07:58:15.154Z,224.85
2023-04-02T07:59:14.523Z,227.80
2023-04-02T08:00:14.910Z,226.72
2023-04-02T08:01:14.137Z,225.71
2023-04-02T08:02:15.407Z,240.53
2023-04-02T08:03:14.801Z,260.38
2023-04-02T08:04:15.044Z,275.18
2023-04-02T08:05:14.336Z,279.95
2023-04-02T08:06:14.647Z,269.67
2023-04-02T08:07:15.914Z,265.81
2023-04-02T08:08:15.289Z,269.30
2023-04-02T08:09:14.656Z,285.89
2023-04-02T08:10:13.846Z,293.72
2023-04-02T08:11:14.195Z,289.57
2023-04-02T08:12:14.607Z,280.38
2023-04-02T08:13:14.784Z,281.89
2023-04-02T08:14:16.178Z,279.44
2023-04-02T08:15:15.298Z,277.48
2023-04-02T08:16:15.623Z,271.86
2023-04-02T08:17:13.926Z,270.37
2023-04-02T08:18:16.255Z,275.50
2023-04-02T08:19:14.530Z,272.36
2023-04-02T08:20:14.796Z,270.51
2023-04-02T08:21:16.191Z,261.12
2023-04-02T08:22:15.418Z,235.98
2023-04-02T08:23:13.703Z,226.99
2023-04-02T08:24:14.041Z,229.95
2023-04-02T08:25:14.336Z,240.50
2023-04-02T08:26:14.587Z,255.59
2023-04-02T08:27:14.883Z,258.96
2023-04-02T08:28:16.338Z,248.65
2023-04-02T08:29:13.512Z,234.89
2023-04-02T08:30:14.085Z,222.85
2023-04-02T08:31:15.179Z,220.93
2023-04-02T08:32:14.832Z,219.24
2023-04-02T08:33:13.734Z,218.92
2023-04-02T08:34:15.004Z,211.30
2023-04-02T08:35:15.337Z,199.32
2023-04-02T08:36:13.764Z,186.78
2023-04-02T08:37:13.941Z,179.69
2023-04-02T08:38:14.272Z,176.49
2023-04-02T08:39:14.532Z,175.01
2023-04-02T08:40:15.057Z,174.90
2023-04-02T08:41:15.175Z,176.05
2023-04-02T08:42:14.444Z,178.68
2023-04-02T08:43:13.816Z,187.84
2023-04-02T08:44:15.124Z,201.31
2023-04-02T08:46:15.711Z,211.58
2023-04-02T08:47:15.034Z,228.80
2023-04-02T08:48:14.317Z,214.50
2023-04-02T08:49:15.850Z,191.95
2023-04-02T08:50:19.124Z,182.61
2023-04-02T08:51:14.232Z,177.02
2023-04-02T08:52:14.561Z,174.01
2023-04-02T08:53:14.761Z,168.42
2023-04-02T08:54:15.039Z,165.04
2023-04-02T08:55:13.392Z,165.77
2023-04-02T08:56:14.617Z,163.91
2023-04-02T08:57:22.477Z,166.83
2023-04-02T08:58:15.254Z,168.10
2023-04-02T08:59:14.542Z,166.19
2023-04-02T09:00:14.849Z,165.63
2023-04-02T09:01:14.192Z,163.16
2023-04-02T09:02:13.462Z,162.29
2023-04-02T09:03:13.862Z,164.65
2023-04-02T09:04:14.188Z,166.65
2023-04-02T09:05:13.417Z,171.93
2023-04-02T09:06:16.442Z,180.12
2023-04-02T09:07:15.026Z,185.12
2023-04-02T09:08:13.318Z,190.17
2023-04-02T09:09:18.219Z,200.78
2023-04-02T09:10:14.078Z,211.08
2023-04-02T09:11:14.196Z,217.34
2023-04-02T09:12:14.489Z,217.32
2023-04-02T09:13:14.816Z,214.03
2023-04-02T09:14:13.155Z,210.69
2023-04-02T09:15:13.489Z,205.99
2023-04-02T09:16:14.764Z,202.36
2023-04-02T09:17:18.133Z,197.67
2023-04-02T09:18:17.589Z,189.59
2023-04-02T09:19:14.648Z,183.68
2023-04-02T09:20:29.579Z,181.48
2023-04-02T09:21:13.298Z,180.49
2023-04-02T09:22:13.532Z,178.21
2023-04-02T09:23:34.555Z,180.15
2023-04-02T09:24:13.145Z,180.83
2023-04-02T09:25:18.677Z,179.15
2023-04-02T09:26:13.776Z,183.09
2023-04-02T09:27:13.087Z,193.89
2023-04-02T09:28:13.359Z,203.15
2023-04-02T09:29:13.684Z,205.22
2023-04-02T09:30:12.977Z,200.52
2023-04-02T09:31:13.382Z,196.53
2023-04-02T09:32:13.670Z,196.28
2023-04-02T09:33:13.042Z,193.48
2023-04-02T09:34:13.212Z,190.06
2023-04-02T09:35:25.605Z,187.43
2023-04-02T09:36:16.165Z,188.60
2023-04-02T09:37:13.165Z,195.71
2023-04-02T09:38:13.558Z,211.63
2023-04-02T09:39:12.804Z,228.76
2023-04-02T09:40:13.157Z,244.87
2023-04-02T09:41:13.448Z,260.73
2023-04-02T09:42:12.722Z,280.24
2023-04-02T09:43:13.053Z,293.39
2023-04-02T09:44:13.396Z,296.31
2023-04-02T09:45:14.637Z,293.92
2023-04-02T09:46:12.989Z,294.26
2023-04-02T09:47:15.241Z,294.13
2023-04-02T09:48:13.568Z,292.56
2023-04-02T09:49:12.823Z,298.99
2023-04-02T09:50:13.448Z,310.55
2023-04-02T09:51:13.451Z,335.85
2023-04-02T09:52:12.710Z,342.15
2023-04-02T09:53:14.082Z,334.48
2023-04-02T09:54:14.325Z,301.88
2023-04-02T09:55:14.616Z,290.95
2023-04-02T09:56:12.923Z,284.20
2023-04-02T09:57:13.278Z,279.72
2023-04-02T09:58:12.478Z,271.35
2023-04-02T09:59:12.804Z,258.82
2023-04-02T10:00:41.620Z,246.33
2023-04-02T10:01:14.452Z,235.98
2023-04-02T10:02:12.687Z,228.61
2023-04-02T10:03:13.901Z,224.10
2023-04-02T10:04:13.215Z,222.73
2023-04-02T10:05:12.628Z,218.67
2023-04-02T10:06:12.752Z,210.97
2023-04-02T10:07:13.034Z,205.65
2023-04-02T10:08:12.297Z,203.97
2023-04-02T10:09:12.602Z,202.70
2023-04-02T10:10:13.917Z,203.60
2023-04-02T10:11:13.191Z,207.02
2023-04-02T10:12:12.415Z,211.01
2023-04-02T10:13:12.770Z,213.66
2023-04-02T10:14:13.046Z,212.58
2023-04-02T10:15:12.315Z,209.82
2023-04-02T10:16:12.688Z,208.79
2023-04-02T10:17:13.092Z,209.64
2023-04-02T10:18:12.196Z,212.19
2023-04-02T10:19:12.549Z,216.46
2023-04-02T10:20:12.816Z,218.69
2023-04-02T10:21:14.039Z,218.66
2023-04-02T10:22:12.473Z,220.63
2023-04-02T10:23:12.635Z,223.83
2023-04-02T10:24:12.958Z,222.30
2023-04-02T10:25:12.249Z,224.05
2023-04-02T10:26:12.544Z,226.24
2023-04-02T10:27:13.826Z,222.74
2023-04-02T10:28:12.136Z,216.24
2023-04-02T10:29:13.396Z,210.41
2023-04-02T10:30:12.810Z,208.72
2023-04-02T10:31:11.985Z,208.70
2023-04-02T10:32:13.269Z,208.80
2023-04-02T10:33:12.574Z,206.63
2023-04-02T10:34:12.852Z,206.29
2023-04-02T10:35:12.112Z,206.26
2023-04-02T10:36:12.500Z,204.98
2023-04-02T10:37:12.720Z,203.78
2023-04-02T10:38:11.974Z,198.24
2023-04-02T10:39:12.251Z,194.14
2023-04-02T10:40:12.689Z,189.85
2023-04-02T10:41:12.784Z,189.03
2023-04-02T10:42:12.138Z,194.93
2023-04-02T10:43:12.522Z,196.25
2023-04-02T10:44:19.385Z,189.91
2023-04-02T10:45:12.948Z,186.42
2023-04-02T10:46:12.274Z,192.12
2023-04-02T10:47:12.657Z,200.79
2023-04-02T10:48:11.822Z,213.03
2023-04-02T10:49:12.215Z,230.51
2023-04-02T10:50:12.472Z,273.07
2023-04-02T10:51:11.890Z,308.48
2023-04-02T10:52:12.053Z,306.04
2023-04-02T10:53:12.696Z,295.79
2023-04-02T10:54:11.645Z,288.47
2023-04-02T10:55:12.033Z,302.53
2023-04-02T10:56:11.799Z,363.47
2023-04-02T10:57:12.136Z,383.33
2023-04-02T10:58:13.378Z,372.96
2023-04-02T10:59:11.686Z,398.43
2023-04-02T11:00:12.126Z,438.16
2023-04-02T11:01:12.244Z,448.07
2023-04-02T11:02:12.561Z,439.88
2023-04-02T11:03:12.021Z,422.29
2023-04-02T11:04:14.144Z,414.50
2023-04-02T11:05:12.459Z,445.39
2023-04-02T11:06:12.141Z,472.89
2023-04-02T11:07:14.829Z,461.64
2023-04-02T11:08:12.330Z,463.09
2023-04-02T11:09:11.581Z,472.26
2023-04-02T11:10:11.954Z,486.47
2023-04-02T11:11:12.191Z,501.12
2023-04-02T11:12:11.481Z,527.00
2023-04-02T11:13:11.720Z,540.99
2023-04-02T11:14:11.985Z,524.38
2023-04-02T11:15:12.261Z,510.40
2023-04-02T11:16:11.626Z,498.65
2023-04-02T11:17:11.782Z,486.01
2023-04-02T11:18:12.092Z,497.82
2023-04-02T11:19:11.358Z,512.28
2023-04-02T11:20:11.716Z,522.02
2023-04-02T11:21:11.906Z,525.25
2023-04-02T11:22:12.208Z,526.16
2023-04-02T11:23:12.484Z,539.92
2023-04-02T11:24:11.752Z,535.22
2023-04-02T11:25:12.058Z,516.44
2023-04-02T11:26:12.346Z,492.50
2023-04-02T11:27:11.697Z,483.69
2023-04-02T11:28:11.863Z,476.46
2023-04-02T11:29:12.159Z,473.40
2023-04-02T11:30:11.388Z,473.18
2023-04-02T11:31:11.694Z,465.18
2023-04-02T11:32:11.997Z,449.83
2023-04-02T11:33:12.236Z,434.81
2023-04-02T11:34:11.456Z,429.41
2023-04-02T11:35:11.758Z,434.86
2023-04-02T11:36:12.290Z,434.80
2023-04-02T11:37:11.302Z,423.54
2023-04-02T11:38:11.597Z,403.07
2023-04-02T11:39:17.349Z,386.46
2023-04-02T11:40:11.158Z,380.03
2023-04-02T11:41:11.472Z,385.05
2023-04-02T11:42:11.728Z,388.02
2023-04-02T11:43:10.958Z,385.07
2023-04-02T11:44:11.249Z,377.53
2023-04-02T11:45:11.533Z,375.14
2023-04-02T11:46:11.845Z,376.09
2023-04-02T11:47:11.128Z,376.02
2023-04-02T11:48:11.387Z,376.68
2023-04-02T11:49:11.674Z,375.60
2023-04-02T11:50:10.960Z,363.87
2023-04-02T11:51:11.224Z,331.30
2023-04-02T11:52:12.570Z,320.12
2023-04-02T11:53:11.801Z,311.92
2023-04-02T11:54:11.014Z,302.09
2023-04-02T11:55:11.287Z,291.36
2023-04-02T11:56:11.561Z,284.41
2023-04-02T11:57:10.842Z,285.81
2023-04-02T11:58:11.126Z,293.46
2023-04-02T11:59:11.377Z,298.33
2023-04-02T12:00:11.643Z,297.21
2023-04-02T12:01:10.880Z,291.14
2023-04-02T12:02:11.211Z,284.86
2023-04-02T12:03:11.514Z,280.25
2023-04-02T12:04:11.799Z,275.07
2023-04-02T12:05:11.070Z,274.59
2023-04-02T12:06:11.159Z,280.95
2023-04-02T12:07:12.437Z,293.76
2023-04-02T12:08:10.680Z,300.77
2023-04-02T12:09:10.984Z,297.86
2023-04-02T12:10:11.231Z,289.65
2023-04-02T12:11:11.494Z,281.80
2023-04-02T12:12:10.712Z,271.40
2023-04-02T12:13:12.001Z,259.29
2023-04-02T12:14:11.292Z,257.70
2023-04-02T12:15:11.556Z,257.53
2023-04-02T12:16:11.723Z,248.24
2023-04-02T12:17:11.148Z,243.21
2023-04-02T12:18:11.333Z,243.41
2023-04-02T12:19:10.584Z,244.39
2023-04-02T12:20:10.945Z,251.24
2023-04-02T12:21:11.157Z,258.31
2023-04-02T12:22:11.439Z,260.79
2023-04-02T12:23:10.692Z,259.49
2023-04-02T12:24:12.015Z,254.84
2023-04-02T12:25:11.253Z,254.21
2023-04-02T12:26:10.490Z,255.30
2023-04-02T12:27:10.786Z,251.15
2023-04-02T12:28:11.074Z,245.96
2023-04-02T12:29:11.310Z,242.43
2023-04-02T12:30:10.512Z,242.83
2023-04-02T12:31:10.993Z,247.50
2023-04-02T12:32:11.113Z,252.97
2023-04-02T12:33:10.354Z,257.42
2023-04-02T12:34:10.608Z,263.79
2023-04-02T12:35:10.869Z,270.22
2023-04-02T12:36:11.239Z,273.85
2023-04-02T12:37:10.409Z,275.39
2023-04-02T12:38:10.674Z,277.77
2023-04-02T12:39:11.033Z,279.99
2023-04-02T12:40:11.242Z,279.00
2023-04-02T12:41:10.498Z,277.40
2023-04-02T12:42:10.770Z,279.74
2023-04-02T12:43:11.041Z,288.03
2023-04-02T12:44:10.276Z,298.57
2023-04-02T12:45:10.533Z,309.16
2023-04-02T12:46:11.800Z,319.37
2023-04-02T12:47:11.144Z,347.48
2023-04-02T12:48:10.421Z,357.48
2023-04-02T12:49:10.658Z,368.10
2023-04-02T12:50:10.888Z,375.26
2023-04-02T12:51:10.191Z,379.20
2023-04-02T12:52:10.508Z,382.27
2023-04-02T12:53:10.758Z,392.67
2023-04-02T12:54:14.128Z,411.45
2023-04-02T12:55:11.164Z,425.20
2023-04-02T12:56:11.516Z,438.10
2023-04-02T12:57:10.887Z,464.49